sensor_id;sensor_type;location;lat;lon;timestamp;temperature;humidity
46706;DHT22;33519;50.712;7.124;2023-01-19T00:01:39;0.50;99.90
46706;DHT22;33519;50.712;7.124;2023-01-19T00:04:06;0.50;99.90
46706;DHT22;33519;50.712;7.124;2023-01-19T00:06:32;0.50;99.90
46706;DHT22;33519;50.712;7.124;2023-01-19T00:08:59;0.60;99.90
46706;DHT22;33519;50.712;7.124;2023-01-19T00:11:26;0.60;99.90
46706;DHT22;33519;50.712;7.124;2023-01-19T00:13:52;0.60;99.90
46706;DHT22;33519;50.712;7.124;2023-01-19T00:16:19;0.70;99.90
46706;DHT22;33519;50.712;7.124;2023-01-19T00:18:48;0.60;99.90
46706;DHT22;33519;50.712;7.124;2023-01-19T00:21:16;0.70;99.90
46706;DHT22;33519;50.712;7.124;2023-01-19T00:23:43;0.80;99.90
46706;DHT22;33519;50.712;7.124;2023-01-19T00:26:13;0.70;99.90
46706;DHT22;33519;50.712;7.124;2023-01-19T00:28:44;0.80;99.90
46706;DHT22;33519;50.712;7.124;2023-01-19T00:31:11;0.70;99.90
46706;DHT22;33519;50.712;7.124;2023-01-19T00:33:38;0.80;99.90
46706;DHT22;33519;50.712;7.124;2023-01-19T00:36:04;0.80;99.90
46706;DHT22;33519;50.712;7.124;2023-01-19T00:38:31;0.70;99.90
46706;DHT22;33519;50.712;7.124;2023-01-19T00:40:57;0.70;99.90
46706;DHT22;33519;50.712;7.124;2023-01-19T00:43:24;0.70;99.90
46706;DHT22;33519;50.712;7.124;2023-01-19T00:45:51;0.70;99.90
46706;DHT22;33519;50.712;7.124;2023-01-19T00:48:17;0.70;99.90
46706;DHT22;33519;50.712;7.124;2023-01-19T00:50:44;0.70;99.90
46706;DHT22;33519;50.712;7.124;2023-01-19T00:53:11;0.70;99.90
46706;DHT22;33519;50.712;7.124;2023-01-19T00:55:37;0.70;99.90
46706;DHT22;33519;50.712;7.124;2023-01-19T00:58:04;0.60;99.90
46706;DHT22;33519;50.712;7.124;2023-01-19T01:00:32;0.60;99.90
46706;DHT22;33519;50.712;7.124;2023-01-19T01:02:59;0.60;99.90
46706;DHT22;33519;50.712;7.124;2023-01-19T01:05:26;0.50;99.90
46706;DHT22;33519;50.712;7.124;2023-01-19T01:07:52;0.50;99.90
46706;DHT22;33519;50.712;7.124;2023-01-19T01:10:20;0.50;99.90
46706;DHT22;33519;50.712;7.124;2023-01-19T01:12:47;0.50;99.90
46706;DHT22;33519;50.712;7.124;2023-01-19T01:15:24;0.50;99.90
46706;DHT22;33519;50.712;7.124;2023-01-19T01:17:51;0.50;99.90
46706;DHT22;33519;50.712;7.124;2023-01-19T01:20:19;0.50;99.90
46706;DHT22;33519;50.712;7.124;2023-01-19T01:22:48;0.50;99.90
46706;DHT22;33519;50.712;7.124;2023-01-19T01:25:15;0.50;99.90
46706;DHT22;33519;50.712;7.124;2023-01-19T01:27:42;0.40;99.90
46706;DHT22;33519;50.712;7.124;2023-01-19T01:30:10;0.40;99.90
46706;DHT22;33519;50.712;7.124;2023-01-19T01:32:37;0.40;99.90
46706;DHT22;33519;50.712;7.124;2023-01-19T01:35:04;0.30;99.90
46706;DHT22;33519;50.712;7.124;2023-01-19T01:37:31;0.30;99.90
46706;DHT22;33519;50.712;7.124;2023-01-19T01:39:58;0.30;99.90
46706;DHT22;33519;50.712;7.124;2023-01-19T01:42:28;0.30;99.90
46706;DHT22;33519;50.712;7.124;2023-01-19T01:44:56;0.30;99.90
46706;DHT22;33519;50.712;7.124;2023-01-19T01:50:11;0.40;99.90
46706;DHT22;33519;50.712;7.124;2023-01-19T01:52:44;0.40;99.90
46706;DHT22;33519;50.712;7.124;2023-01-19T01:55:31;0.40;99.90
46706;DHT22;33519;50.712;7.124;2023-01-19T01:58:01;0.30;99.90
46706;DHT22;33519;50.712;7.124;2023-01-19T02:00:30;0.30;99.90
46706;DHT22;33519;50.712;7.124;2023-01-19T02:03:16;0.30;99.90
46706;DHT22;33519;50.712;7.124;2023-01-19T02:05:42;0.30;99.90
46706;DHT22;33519;50.712;7.124;2023-01-19T02:08:14;0.40;99.90
46706;DHT22;33519;50.712;7.124;2023-01-19T02:11:01;0.40;99.90
46706;DHT22;33519;50.712;7.124;2023-01-19T02:13:47;0.40;99.90
46706;DHT22;33519;50.712;7.124;2023-01-19T02:16:14;0.50;99.90
46706;DHT22;33519;50.712;7.124;2023-01-19T02:18:41;0.50;99.90
46706;DHT22;33519;50.712;7.124;2023-01-19T02:21:17;0.60;99.90
46706;DHT22;33519;50.712;7.124;2023-01-19T02:23:46;0.70;99.90
46706;DHT22;33519;50.712;7.124;2023-01-19T02:26:15;0.80;99.90
46706;DHT22;33519;50.712;7.124;2023-01-19T02:28:44;0.80;99.90
46706;DHT22;33519;50.712;7.124;2023-01-19T02:31:11;0.90;99.90
46706;DHT22;33519;50.712;7.124;2023-01-19T02:33:40;0.90;99.90
46706;DHT22;33519;50.712;7.124;2023-01-19T02:36:07;0.90;99.90
46706;DHT22;33519;50.712;7.124;2023-01-19T02:38:35;0.90;99.90
46706;DHT22;33519;50.712;7.124;2023-01-19T02:41:02;0.80;99.90
46706;DHT22;33519;50.712;7.124;2023-01-19T02:43:29;0.90;99.90
46706;DHT22;33519;50.712;7.124;2023-01-19T02:45:57;0.80;99.90
46706;DHT22;33519;50.712;7.124;2023-01-19T02:48:23;0.80;99.90
46706;DHT22;33519;50.712;7.124;2023-01-19T02:50:51;0.80;99.90
46706;DHT22;33519;50.712;7.124;2023-01-19T02:56:05;0.80;99.90
46706;DHT22;33519;50.712;7.124;2023-01-19T03:01:50;0.80;99.90
46706;DHT22;33519;50.712;7.124;2023-01-19T03:07:10;0.80;99.90
46706;DHT22;33519;50.712;7.124;2023-01-19T03:09:41;0.80;99.90
46706;DHT22;33519;50.712;7.124;2023-01-19T03:14:42;0.80;99.90
46706;DHT22;33519;50.712;7.124;2023-01-19T03:17:10;0.80;99.90
46706;DHT22;33519;50.712;7.124;2023-01-19T03:19:41;0.80;99.90
46706;DHT22;33519;50.712;7.124;2023-01-19T03:22:12;0.80;99.90
46706;DHT22;33519;50.712;7.124;2023-01-19T03:24:41;0.80;99.90
46706;DHT22;33519;50.712;7.124;2023-01-19T03:27:13;0.80;99.90
46706;DHT22;33519;50.712;7.124;2023-01-19T03:29:44;0.80;99.90
46706;DHT22;33519;50.712;7.124;2023-01-19T03:32:13;0.80;99.90
46706;DHT22;33519;50.712;7.124;2023-01-19T03:34:41;0.80;99.90
46706;DHT22;33519;50.712;7.124;2023-01-19T03:37:09;0.80;99.90
46706;DHT22;33519;50.712;7.124;2023-01-19T03:39:36;0.90;99.90
46706;DHT22;33519;50.712;7.124;2023-01-19T03:42:04;0.90;99.90
46706;DHT22;33519;50.712;7.124;2023-01-19T03:44:32;0.90;99.90
46706;DHT22;33519;50.712;7.124;2023-01-19T03:47:00;0.90;99.90
46706;DHT22;33519;50.712;7.124;2023-01-19T03:49:29;0.90;99.90
46706;DHT22;33519;50.712;7.124;2023-01-19T03:51:55;0.90;99.90
46706;DHT22;33519;50.712;7.124;2023-01-19T03:54:24;0.80;99.90
46706;DHT22;33519;50.712;7.124;2023-01-19T03:56:51;0.80;99.90
46706;DHT22;33519;50.712;7.124;2023-01-19T03:59:20;0.90;99.90
46706;DHT22;33519;50.712;7.124;2023-01-19T04:01:47;0.90;99.90
46706;DHT22;33519;50.712;7.124;2023-01-19T04:04:14;0.90;99.90
46706;DHT22;33519;50.712;7.124;2023-01-19T04:06:43;0.90;99.90
46706;DHT22;33519;50.712;7.124;2023-01-19T04:09:10;0.90;99.90
46706;DHT22;33519;50.712;7.124;2023-01-19T04:11:36;0.90;99.90
46706;DHT22;33519;50.712;7.124;2023-01-19T04:14:03;0.90;99.90
46706;DHT22;33519;50.712;7.124;2023-01-19T04:16:30;1.00;99.90
46706;DHT22;33519;50.712;7.124;2023-01-19T04:18:56;0.90;99.90
46706;DHT22;33519;50.712;7.124;2023-01-19T04:21:23;0.90;99.90
46706;DHT22;33519;50.712;7.124;2023-01-19T04:23:49;0.90;99.90
46706;DHT22;33519;50.712;7.124;2023-01-19T04:26:16;0.90;99.90
46706;DHT22;33519;50.712;7.124;2023-01-19T04:28:43;0.90;99.90
46706;DHT22;33519;50.712;7.124;2023-01-19T04:31:10;0.90;99.90
46706;DHT22;33519;50.712;7.124;2023-01-19T04:33:37;1.00;99.90
46706;DHT22;33519;50.712;7.124;2023-01-19T04:36:03;1.00;99.90
46706;DHT22;33519;50.712;7.124;2023-01-19T04:38:30;1.00;99.90
46706;DHT22;33519;50.712;7.124;2023-01-19T04:40:57;1.00;99.90
46706;DHT22;33519;50.712;7.124;2023-01-19T04:43:23;1.10;99.90
46706;DHT22;33519;50.712;7.124;2023-01-19T04:45:50;1.20;99.90
46706;DHT22;33519;50.712;7.124;2023-01-19T04:48:17;1.30;99.90
46706;DHT22;33519;50.712;7.124;2023-01-19T04:50:44;1.30;99.90
46706;DHT22;33519;50.712;7.124;2023-01-19T04:53:13;1.30;99.90
46706;DHT22;33519;50.712;7.124;2023-01-19T04:55:41;1.40;99.90
46706;DHT22;33519;50.712;7.124;2023-01-19T04:58:08;1.40;99.90
46706;DHT22;33519;50.712;7.124;2023-01-19T05:00:35;1.40;99.90
46706;DHT22;33519;50.712;7.124;2023-01-19T05:03:01;1.40;99.90
46706;DHT22;33519;50.712;7.124;2023-01-19T05:05:29;1.40;99.90
46706;DHT22;33519;50.712;7.124;2023-01-19T05:07:55;1.50;99.90
46706;DHT22;33519;50.712;7.124;2023-01-19T05:10:22;1.50;99.90
46706;DHT22;33519;50.712;7.124;2023-01-19T05:12:49;1.50;99.90
46706;DHT22;33519;50.712;7.124;2023-01-19T05:15:16;1.50;99.90
46706;DHT22;33519;50.712;7.124;2023-01-19T05:17:43;1.60;99.90
46706;DHT22;33519;50.712;7.124;2023-01-19T05:20:10;1.60;99.90
46706;DHT22;33519;50.712;7.124;2023-01-19T05:22:41;1.60;99.90
46706;DHT22;33519;50.712;7.124;2023-01-19T05:25:08;1.50;99.90
46706;DHT22;33519;50.712;7.124;2023-01-19T05:27:35;1.50;99.90
46706;DHT22;33519;50.712;7.124;2023-01-19T05:30:02;1.60;99.90
46706;DHT22;33519;50.712;7.124;2023-01-19T05:32:30;1.50;99.90
46706;DHT22;33519;50.712;7.124;2023-01-19T05:34:56;1.60;99.90
46706;DHT22;33519;50.712;7.124;2023-01-19T05:37:23;1.60;99.90
46706;DHT22;33519;50.712;7.124;2023-01-19T05:39:50;1.60;99.90
46706;DHT22;33519;50.712;7.124;2023-01-19T05:42:16;1.70;99.90
46706;DHT22;33519;50.712;7.124;2023-01-19T05:44:43;1.70;99.90
46706;DHT22;33519;50.712;7.124;2023-01-19T05:47:09;1.70;99.90
46706;DHT22;33519;50.712;7.124;2023-01-19T05:49:37;1.70;99.90
46706;DHT22;33519;50.712;7.124;2023-01-19T05:52:04;1.80;99.90
46706;DHT22;33519;50.712;7.124;2023-01-19T05:54:30;1.70;99.90
46706;DHT22;33519;50.712;7.124;2023-01-19T05:56:57;1.80;99.90
46706;DHT22;33519;50.712;7.124;2023-01-19T05:59:24;1.80;99.90
46706;DHT22;33519;50.712;7.124;2023-01-19T06:01:50;1.90;99.90
46706;DHT22;33519;50.712;7.124;2023-01-19T06:04:17;1.90;99.90
46706;DHT22;33519;50.712;7.124;2023-01-19T06:06:48;1.90;99.90
46706;DHT22;33519;50.712;7.124;2023-01-19T06:09:15;1.90;99.90
46706;DHT22;33519;50.712;7.124;2023-01-19T06:11:43;2.00;99.90
46706;DHT22;33519;50.712;7.124;2023-01-19T06:14:10;2.00;99.90
46706;DHT22;33519;50.712;7.124;2023-01-19T06:16:36;2.00;99.90
46706;DHT22;33519;50.712;7.124;2023-01-19T06:19:03;2.00;99.90
46706;DHT22;33519;50.712;7.124;2023-01-19T06:21:30;1.90;99.90
46706;DHT22;33519;50.712;7.124;2023-01-19T06:23:56;1.90;99.90
46706;DHT22;33519;50.712;7.124;2023-01-19T06:26:24;1.80;99.90
46706;DHT22;33519;50.712;7.124;2023-01-19T06:28:51;1.80;99.90
46706;DHT22;33519;50.712;7.124;2023-01-19T06:31:18;1.70;99.90
46706;DHT22;33519;50.712;7.124;2023-01-19T06:33:44;1.70;99.90
46706;DHT22;33519;50.712;7.124;2023-01-19T06:36:11;1.70;99.90
46706;DHT22;33519;50.712;7.124;2023-01-19T06:38:38;1.60;99.90
46706;DHT22;33519;50.712;7.124;2023-01-19T06:41:04;1.60;99.90
46706;DHT22;33519;50.712;7.124;2023-01-19T06:43:31;1.60;99.90
46706;DHT22;33519;50.712;7.124;2023-01-19T06:45:57;1.40;99.90
46706;DHT22;33519;50.712;7.124;2023-01-19T06:48:26;1.40;99.90
46706;DHT22;33519;50.712;7.124;2023-01-19T06:50:52;1.30;99.90
46706;DHT22;33519;50.712;7.124;2023-01-19T06:53:19;1.20;99.90
46706;DHT22;33519;50.712;7.124;2023-01-19T06:55:47;1.20;99.90
46706;DHT22;33519;50.712;7.124;2023-01-19T06:58:14;1.10;99.90
46706;DHT22;33519;50.712;7.124;2023-01-19T07:00:41;1.00;99.90
46706;DHT22;33519;50.712;7.124;2023-01-19T07:03:08;1.00;99.90
46706;DHT22;33519;50.712;7.124;2023-01-19T07:05:43;0.90;99.90
46706;DHT22;33519;50.712;7.124;2023-01-19T07:08:10;0.90;99.90
46706;DHT22;33519;50.712;7.124;2023-01-19T07:10:36;0.80;99.90
46706;DHT22;33519;50.712;7.124;2023-01-19T07:13:23;0.80;99.90
46706;DHT22;33519;50.712;7.124;2023-01-19T07:15:50;0.80;99.90
46706;DHT22;33519;50.712;7.124;2023-01-19T07:18:16;0.80;99.90
46706;DHT22;33519;50.712;7.124;2023-01-19T07:20:43;0.80;99.90
46706;DHT22;33519;50.712;7.124;2023-01-19T07:23:13;0.80;99.90
46706;DHT22;33519;50.712;7.124;2023-01-19T07:25:43;0.80;99.90
46706;DHT22;33519;50.712;7.124;2023-01-19T07:28:10;0.80;99.90
46706;DHT22;33519;50.712;7.124;2023-01-19T07:30:38;0.80;99.90
46706;DHT22;33519;50.712;7.124;2023-01-19T07:33:04;0.80;99.90
46706;DHT22;33519;50.712;7.124;2023-01-19T07:38:12;0.80;99.90
46706;DHT22;33519;50.712;7.124;2023-01-19T07:40:39;0.80;99.90
46706;DHT22;33519;50.712;7.124;2023-01-19T07:43:06;0.80;99.90
46706;DHT22;33519;50.712;7.124;2023-01-19T07:45:32;0.80;99.90
46706;DHT22;33519;50.712;7.124;2023-01-19T07:48:00;0.80;99.90
46706;DHT22;33519;50.712;7.124;2023-01-19T07:50:27;0.70;99.90
46706;DHT22;33519;50.712;7.124;2023-01-19T07:55:29;0.70;99.90
46706;DHT22;33519;50.712;7.124;2023-01-19T07:57:55;0.60;99.90
46706;DHT22;33519;50.712;7.124;2023-01-19T08:00:22;0.70;99.90
46706;DHT22;33519;50.712;7.124;2023-01-19T08:02:50;0.70;99.90
46706;DHT22;33519;50.712;7.124;2023-01-19T08:05:17;0.80;99.90
46706;DHT22;33519;50.712;7.124;2023-01-19T08:07:44;0.80;99.90
46706;DHT22;33519;50.712;7.124;2023-01-19T08:10:12;0.80;99.90
46706;DHT22;33519;50.712;7.124;2023-01-19T08:12:39;0.80;99.90
46706;DHT22;33519;50.712;7.124;2023-01-19T08:15:08;0.90;99.90
46706;DHT22;33519;50.712;7.124;2023-01-19T08:17:34;0.90;99.90
46706;DHT22;33519;50.712;7.124;2023-01-19T08:20:01;0.90;99.90
46706;DHT22;33519;50.712;7.124;2023-01-19T08:22:28;0.90;99.90
46706;DHT22;33519;50.712;7.124;2023-01-19T08:24:55;1.00;99.90
46706;DHT22;33519;50.712;7.124;2023-01-19T08:27:21;1.00;99.90
46706;DHT22;33519;50.712;7.124;2023-01-19T08:29:48;1.00;99.90
46706;DHT22;33519;50.712;7.124;2023-01-19T08:32:15;1.10;99.90
46706;DHT22;33519;50.712;7.124;2023-01-19T08:34:42;1.10;99.90
46706;DHT22;33519;50.712;7.124;2023-01-19T08:37:09;1.20;99.90
46706;DHT22;33519;50.712;7.124;2023-01-19T08:39:35;1.20;99.90
46706;DHT22;33519;50.712;7.124;2023-01-19T08:42:02;1.20;99.90
46706;DHT22;33519;50.712;7.124;2023-01-19T08:44:29;1.30;99.90
46706;DHT22;33519;50.712;7.124;2023-01-19T08:46:56;1.30;99.90
46706;DHT22;33519;50.712;7.124;2023-01-19T08:49:22;1.30;99.90
46706;DHT22;33519;50.712;7.124;2023-01-19T08:51:49;1.30;99.90
46706;DHT22;33519;50.712;7.124;2023-01-19T08:54:16;1.30;99.90
46706;DHT22;33519;50.712;7.124;2023-01-19T08:56:44;1.30;99.90
46706;DHT22;33519;50.712;7.124;2023-01-19T08:59:10;1.40;99.90
46706;DHT22;33519;50.712;7.124;2023-01-19T09:01:39;1.40;99.90
46706;DHT22;33519;50.712;7.124;2023-01-19T09:04:07;1.50;99.90
46706;DHT22;33519;50.712;7.124;2023-01-19T09:06:33;1.50;99.90
46706;DHT22;33519;50.712;7.124;2023-01-19T09:09:00;1.50;99.90
46706;DHT22;33519;50.712;7.124;2023-01-19T09:11:27;1.60;99.90
46706;DHT22;33519;50.712;7.124;2023-01-19T09:13:54;1.70;99.90
46706;DHT22;33519;50.712;7.124;2023-01-19T09:16:20;1.70;99.90
46706;DHT22;33519;50.712;7.124;2023-01-19T09:18:47;1.80;99.90
46706;DHT22;33519;50.712;7.124;2023-01-19T09:21:14;1.90;99.90
46706;DHT22;33519;50.712;7.124;2023-01-19T09:23:41;2.00;99.90
46706;DHT22;33519;50.712;7.124;2023-01-19T09:26:08;2.00;99.90
46706;DHT22;33519;50.712;7.124;2023-01-19T09:28:35;2.10;99.90
46706;DHT22;33519;50.712;7.124;2023-01-19T09:31:03;2.30;99.90
46706;DHT22;33519;50.712;7.124;2023-01-19T09:33:30;2.20;99.90
46706;DHT22;33519;50.712;7.124;2023-01-19T09:35:57;2.30;99.90
46706;DHT22;33519;50.712;7.124;2023-01-19T09:38:23;2.30;99.90
46706;DHT22;33519;50.712;7.124;2023-01-19T09:40:52;2.30;99.90
46706;DHT22;33519;50.712;7.124;2023-01-19T09:46:05;2.40;99.90
46706;DHT22;33519;50.712;7.124;2023-01-19T09:51:03;2.40;99.90
46706;DHT22;33519;50.712;7.124;2023-01-19T09:56:12;2.60;99.90
46706;DHT22;33519;50.712;7.124;2023-01-19T09:58:40;2.60;99.90
46706;DHT22;33519;50.712;7.124;2023-01-19T10:01:11;2.60;99.90
46706;DHT22;33519;50.712;7.124;2023-01-19T10:03:41;2.60;99.90
46706;DHT22;33519;50.712;7.124;2023-01-19T10:06:08;2.60;99.90
46706;DHT22;33519;50.712;7.124;2023-01-19T10:08:42;2.70;99.90
46706;DHT22;33519;50.712;7.124;2023-01-19T10:11:18;2.60;99.90
46706;DHT22;33519;50.712;7.124;2023-01-19T10:13:48;2.60;99.90
46706;DHT22;33519;50.712;7.124;2023-01-19T10:19:11;2.70;99.90
46706;DHT22;33519;50.712;7.124;2023-01-19T10:21:42;2.70;99.90
46706;DHT22;33519;50.712;7.124;2023-01-19T10:26:41;2.70;99.90
46706;DHT22;33519;50.712;7.124;2023-01-19T10:31:41;2.70;99.90
46706;DHT22;33519;50.712;7.124;2023-01-19T10:34:10;2.70;99.90
46706;DHT22;33519;50.712;7.124;2023-01-19T10:36:45;2.70;99.90
46706;DHT22;33519;50.712;7.124;2023-01-19T10:39:14;2.50;99.90
46706;DHT22;33519;50.712;7.124;2023-01-19T10:41:51;2.50;99.90
46706;DHT22;33519;50.712;7.124;2023-01-19T10:44:25;2.50;99.90
46706;DHT22;33519;50.712;7.124;2023-01-19T10:46:52;2.50;99.90
46706;DHT22;33519;50.712;7.124;2023-01-19T10:49:29;2.60;99.90
46706;DHT22;33519;50.712;7.124;2023-01-19T10:51:57;2.60;99.90
46706;DHT22;33519;50.712;7.124;2023-01-19T10:54:25;2.60;99.90
46706;DHT22;33519;50.712;7.124;2023-01-19T10:56:59;2.70;99.90
46706;DHT22;33519;50.712;7.124;2023-01-19T11:04:43;2.80;99.90
46706;DHT22;33519;50.712;7.124;2023-01-19T11:07:26;2.80;99.90
46706;DHT22;33519;50.712;7.124;2023-01-19T11:10:18;2.80;99.90
46706;DHT22;33519;50.712;7.124;2023-01-19T11:13:03;2.90;99.90
46706;DHT22;33519;50.712;7.124;2023-01-19T11:15:34;2.80;99.90
46706;DHT22;33519;50.712;7.124;2023-01-19T11:18:02;2.90;99.90
46706;DHT22;33519;50.712;7.124;2023-01-19T11:20:39;3.00;99.90
46706;DHT22;33519;50.712;7.124;2023-01-19T11:23:17;3.00;99.90
46706;DHT22;33519;50.712;7.124;2023-01-19T11:25:45;3.00;99.90
46706;DHT22;33519;50.712;7.124;2023-01-19T11:28:29;3.00;99.90
46706;DHT22;33519;50.712;7.124;2023-01-19T11:31:01;3.10;99.90
46706;DHT22;33519;50.712;7.124;2023-01-19T11:33:32;3.10;99.90
46706;DHT22;33519;50.712;7.124;2023-01-19T11:36:04;3.10;99.90
46706;DHT22;33519;50.712;7.124;2023-01-19T11:38:31;3.20;99.90
46706;DHT22;33519;50.712;7.124;2023-01-19T11:40:57;3.30;99.90
46706;DHT22;33519;50.712;7.124;2023-01-19T11:43:28;3.40;99.90
46706;DHT22;33519;50.712;7.124;2023-01-19T11:46:13;3.40;99.90
46706;DHT22;33519;50.712;7.124;2023-01-19T11:49:00;3.50;99.90
46706;DHT22;33519;50.712;7.124;2023-01-19T11:52:03;3.60;99.90
46706;DHT22;33519;50.712;7.124;2023-01-19T11:54:22;3.60;99.90
46706;DHT22;33519;50.712;7.124;2023-01-19T11:56:52;3.60;99.90
46706;DHT22;33519;50.712;7.124;2023-01-19T11:59:21;3.70;99.90
46706;DHT22;33519;50.712;7.124;2023-01-19T12:01:52;3.70;99.90
46706;DHT22;33519;50.712;7.124;2023-01-19T12:04:29;3.70;99.90
46706;DHT22;33519;50.712;7.124;2023-01-19T12:06:58;3.80;99.90
46706;DHT22;33519;50.712;7.124;2023-01-19T12:09:29;3.80;99.90
46706;DHT22;33519;50.712;7.124;2023-01-19T12:12:09;3.80;99.90
46706;DHT22;33519;50.712;7.124;2023-01-19T12:17:27;3.90;99.90
46706;DHT22;33519;50.712;7.124;2023-01-19T12:20:00;4.20;99.90
46706;DHT22;33519;50.712;7.124;2023-01-19T12:22:28;4.90;99.90
46706;DHT22;33519;50.712;7.124;2023-01-19T12:25:14;5.60;99.90
46706;DHT22;33519;50.712;7.124;2023-01-19T12:27:45;6.20;99.90
46706;DHT22;33519;50.712;7.124;2023-01-19T12:30:19;6.10;99.90
46706;DHT22;33519;50.712;7.124;2023-01-19T12:32:46;6.50;99.90
46706;DHT22;33519;50.712;7.124;2023-01-19T12:37:58;6.50;99.90
46706;DHT22;33519;50.712;7.124;2023-01-19T12:40:25;6.40;99.90
46706;DHT22;33519;50.712;7.124;2023-01-19T12:42:59;6.60;99.90
46706;DHT22;33519;50.712;7.124;2023-01-19T12:45:33;6.10;99.90
46706;DHT22;33519;50.712;7.124;2023-01-19T12:48:00;6.30;99.90
46706;DHT22;33519;50.712;7.124;2023-01-19T12:50:29;6.30;99.90
46706;DHT22;33519;50.712;7.124;2023-01-19T12:52:57;6.00;99.90
46706;DHT22;33519;50.712;7.124;2023-01-19T12:55:37;6.10;99.90
46706;DHT22;33519;50.712;7.124;2023-01-19T12:58:16;6.00;99.90
46706;DHT22;33519;50.712;7.124;2023-01-19T13:00:49;5.80;99.90
46706;DHT22;33519;50.712;7.124;2023-01-19T13:06:09;5.70;99.90
46706;DHT22;33519;50.712;7.124;2023-01-19T13:11:31;6.00;99.90
46706;DHT22;33519;50.712;7.124;2023-01-19T13:18:59;5.60;99.90
46706;DHT22;33519;50.712;7.124;2023-01-19T13:24:02;5.70;99.90
46706;DHT22;33519;50.712;7.124;2023-01-19T13:29:56;6.60;99.90
46706;DHT22;33519;50.712;7.124;2023-01-19T13:32:05;7.10;99.90
46706;DHT22;33519;50.712;7.124;2023-01-19T13:34:53;6.80;99.90
46706;DHT22;33519;50.712;7.124;2023-01-19T13:37:25;5.90;99.90
46706;DHT22;33519;50.712;7.124;2023-01-19T13:39:55;5.40;99.90
46706;DHT22;33519;50.712;7.124;2023-01-19T13:42:32;5.40;99.90
46706;DHT22;33519;50.712;7.124;2023-01-19T13:44:59;5.40;99.90
46706;DHT22;33519;50.712;7.124;2023-01-19T13:47:29;5.50;99.90
46706;DHT22;33519;50.712;7.124;2023-01-19T13:49:57;5.30;99.90
46706;DHT22;33519;50.712;7.124;2023-01-19T13:52:27;5.20;99.90
46706;DHT22;33519;50.712;7.124;2023-01-19T13:54:54;5.10;99.90
46706;DHT22;33519;50.712;7.124;2023-01-19T13:57:22;5.00;99.90
46706;DHT22;33519;50.712;7.124;2023-01-19T14:02:41;5.00;99.90
46706;DHT22;33519;50.712;7.124;2023-01-19T14:05:20;4.80;99.90
46706;DHT22;33519;50.712;7.124;2023-01-19T14:07:47;4.90;99.90
46706;DHT22;33519;50.712;7.124;2023-01-19T14:10:14;4.70;99.90
46706;DHT22;33519;50.712;7.124;2023-01-19T14:12:42;4.60;99.90
46706;DHT22;33519;50.712;7.124;2023-01-19T14:15:24;4.50;99.90
46706;DHT22;33519;50.712;7.124;2023-01-19T14:21:03;4.40;99.90
46706;DHT22;33519;50.712;7.124;2023-01-19T14:28:57;4.40;99.90
46706;DHT22;33519;50.712;7.124;2023-01-19T14:31:32;4.40;99.90
46706;DHT22;33519;50.712;7.124;2023-01-19T14:34:27;4.50;99.90
46706;DHT22;33519;50.712;7.124;2023-01-19T14:36:54;4.40;99.90
46706;DHT22;33519;50.712;7.124;2023-01-19T14:39:21;4.40;99.90
46706;DHT22;33519;50.712;7.124;2023-01-19T14:41:49;4.30;99.90
46706;DHT22;33519;50.712;7.124;2023-01-19T14:44:20;4.40;99.90
46706;DHT22;33519;50.712;7.124;2023-01-19T14:46:50;4.20;99.90
46706;DHT22;33519;50.712;7.124;2023-01-19T14:49:38;4.30;99.90
46706;DHT22;33519;50.712;7.124;2023-01-19T14:52:06;4.30;99.90
46706;DHT22;33519;50.712;7.124;2023-01-19T14:57:12;4.30;99.90
46706;DHT22;33519;50.712;7.124;2023-01-19T14:59:41;4.40;99.90
46706;DHT22;33519;50.712;7.124;2023-01-19T15:02:13;4.30;99.90
46706;DHT22;33519;50.712;7.124;2023-01-19T15:04:42;4.40;99.90
46706;DHT22;33519;50.712;7.124;2023-01-19T15:07:15;4.40;99.90
46706;DHT22;33519;50.712;7.124;2023-01-19T15:09:43;4.40;99.90
46706;DHT22;33519;50.712;7.124;2023-01-19T15:12:10;4.40;99.90
46706;DHT22;33519;50.712;7.124;2023-01-19T15:14:38;4.40;99.90
46706;DHT22;33519;50.712;7.124;2023-01-19T15:17:05;4.40;99.90
46706;DHT22;33519;50.712;7.124;2023-01-19T15:19:32;4.20;99.90
46706;DHT22;33519;50.712;7.124;2023-01-19T15:21:59;4.20;99.90
46706;DHT22;33519;50.712;7.124;2023-01-19T15:24:25;4.30;99.90
46706;DHT22;33519;50.712;7.124;2023-01-19T15:26:52;4.40;99.90
46706;DHT22;33519;50.712;7.124;2023-01-19T15:29:21;4.30;99.90
46706;DHT22;33519;50.712;7.124;2023-01-19T15:31:48;4.30;99.90
46706;DHT22;33519;50.712;7.124;2023-01-19T15:34:14;4.30;99.90
46706;DHT22;33519;50.712;7.124;2023-01-19T15:36:41;4.10;99.90
46706;DHT22;33519;50.712;7.124;2023-01-19T15:39:08;4.10;99.90
46706;DHT22;33519;50.712;7.124;2023-01-19T15:41:38;4.00;99.90
46706;DHT22;33519;50.712;7.124;2023-01-19T15:44:06;4.00;99.90
46706;DHT22;33519;50.712;7.124;2023-01-19T15:46:49;4.00;99.90
46706;DHT22;33519;50.712;7.124;2023-01-19T15:49:19;3.90;99.90
46706;DHT22;33519;50.712;7.124;2023-01-19T15:51:45;3.90;99.90
46706;DHT22;33519;50.712;7.124;2023-01-19T15:54:12;3.90;99.90
46706;DHT22;33519;50.712;7.124;2023-01-19T15:56:42;3.90;99.90
46706;DHT22;33519;50.712;7.124;2023-01-19T15:59:08;3.90;99.90
46706;DHT22;33519;50.712;7.124;2023-01-19T16:01:35;3.80;99.90
46706;DHT22;33519;50.712;7.124;2023-01-19T16:04:03;3.80;99.90
46706;DHT22;33519;50.712;7.124;2023-01-19T16:06:31;3.80;99.90
46706;DHT22;33519;50.712;7.124;2023-01-19T16:08:57;3.80;99.90
46706;DHT22;33519;50.712;7.124;2023-01-19T16:11:31;3.80;99.90
46706;DHT22;33519;50.712;7.124;2023-01-19T16:13:58;3.80;99.90
46706;DHT22;33519;50.712;7.124;2023-01-19T16:16:25;3.80;99.90
46706;DHT22;33519;50.712;7.124;2023-01-19T16:18:53;3.80;99.90
46706;DHT22;33519;50.712;7.124;2023-01-19T16:21:20;3.80;99.90
46706;DHT22;33519;50.712;7.124;2023-01-19T16:23:50;3.80;99.90
46706;DHT22;33519;50.712;7.124;2023-01-19T16:26:27;3.70;99.90
46706;DHT22;33519;50.712;7.124;2023-01-19T16:28:57;3.70;99.90
46706;DHT22;33519;50.712;7.124;2023-01-19T16:31:24;3.60;99.90
46706;DHT22;33519;50.712;7.124;2023-01-19T16:33:51;3.50;99.90
46706;DHT22;33519;50.712;7.124;2023-01-19T16:36:18;3.50;99.90
46706;DHT22;33519;50.712;7.124;2023-01-19T16:38:45;3.50;99.90
46706;DHT22;33519;50.712;7.124;2023-01-19T16:41:12;3.60;99.90
46706;DHT22;33519;50.712;7.124;2023-01-19T16:43:38;3.60;99.90
46706;DHT22;33519;50.712;7.124;2023-01-19T16:46:05;3.60;99.90
46706;DHT22;33519;50.712;7.124;2023-01-19T16:48:31;3.60;99.90
46706;DHT22;33519;50.712;7.124;2023-01-19T16:51:02;3.60;99.90
46706;DHT22;33519;50.712;7.124;2023-01-19T16:53:31;3.60;99.90
46706;DHT22;33519;50.712;7.124;2023-01-19T16:55:58;3.60;99.90
46706;DHT22;33519;50.712;7.124;2023-01-19T16:58:24;3.50;99.90
46706;DHT22;33519;50.712;7.124;2023-01-19T17:00:51;3.50;99.90
46706;DHT22;33519;50.712;7.124;2023-01-19T17:03:18;3.60;99.90
46706;DHT22;33519;50.712;7.124;2023-01-19T17:05:48;3.50;99.90
46706;DHT22;33519;50.712;7.124;2023-01-19T17:08:19;3.50;99.90
46706;DHT22;33519;50.712;7.124;2023-01-19T17:10:46;3.50;99.90
46706;DHT22;33519;50.712;7.124;2023-01-19T17:13:13;3.60;99.90